Time;durP1;ratioP1;P1;durP2;ratioP2;P2;SDS_P1;SDS_P2;PMS_P1;PMS_P2;Temp;Humidity;BMP_temperature;BMP_pressure;BME280_temperature;BME280_humidity;BME280_pressure;Samples;Min_cycle;Max_cycle;Signal;HPM_P1;HPM_P2
2024/01/10 00:01:27;;;;;;;26.77;11.27;;;-7.60;99.90;;;;;;5036620;28;20520;-69
2024/01/10 00:03:54;;;;;;;28.70;12.52;;;-7.60;99.90;;;;;;5036364;28;20483;-69
2024/01/10 00:06:20;;;;;;;27.38;11.80;;;-7.70;99.90;;;;;;5035270;28;20096;-69
2024/01/10 00:08:45;;;;;;;28.00;11.80;;;-7.70;99.90;;;;;;5036073;28;20037;-69
2024/01/10 00:11:11;;;;;;;29.05;11.82;;;-7.60;99.90;;;;;;5036377;28;20557;-69
2024/01/10 00:13:37;;;;;;;31.63;12.57;;;-7.60;99.90;;;;;;5036675;28;20029;-69
2024/01/10 00:16:03;;;;;;;22.25;10.55;;;-7.60;99.90;;;;;;5036903;28;20025;-69
2024/01/10 00:18:29;;;;;;;26.15;11.65;;;-7.60;99.90;;;;;;5034648;28;20409;-69
2024/01/10 00:20:54;;;;;;;27.08;10.90;;;-7.60;99.90;;;;;;5036538;28;20029;-69
2024/01/10 00:23:21;;;;;;;29.65;12.18;;;-7.70;99.90;;;;;;5036255;28;20025;-69
2024/01/10 00:25:47;;;;;;;26.70;11.57;;;-7.70;99.90;;;;;;5034520;28;20037;-69
2024/01/10 00:28:14;;;;;;;28.90;12.48;;;-7.70;99.90;;;;;;5034999;28;20022;-69
2024/01/10 00:30:39;;;;;;;26.50;11.40;;;-7.70;99.90;;;;;;5036105;28;20100;-69
2024/01/10 00:33:05;;;;;;;29.88;12.45;;;-7.70;99.90;;;;;;5034054;28;20053;-69
2024/01/10 00:35:31;;;;;;;32.10;13.27;;;-7.70;99.90;;;;;;5035677;28;20461;-69
2024/01/10 00:37:57;;;;;;;30.25;11.82;;;-7.70;99.90;;;;;;5034735;28;20393;-69
2024/01/10 00:40:23;;;;;;;27.08;11.18;;;-7.70;99.90;;;;;;5036007;28;20435;-69
2024/01/10 00:42:48;;;;;;;30.27;11.85;;;-7.70;99.90;;;;;;5035584;28;20033;-69
2024/01/10 00:45:15;;;;;;;25.60;11.38;;;-7.70;99.90;;;;;;5035770;28;20079;-69
2024/01/10 00:47:41;;;;;;;29.08;10.98;;;-7.80;99.90;;;;;;5035427;28;20021;-70
2024/01/10 00:50:07;;;;;;;23.83;10.27;;;-7.80;99.90;;;;;;5035946;28;20500;-69
2024/01/10 00:52:33;;;;;;;30.42;11.63;;;-7.80;99.90;;;;;;5035772;28;20049;-69
2024/01/10 00:55:02;;;;;;;24.95;11.20;;;-7.90;99.90;;;;;;5035618;28;20032;-69
2024/01/10 00:57:29;;;;;;;24.30;11.10;;;-8.00;99.90;;;;;;5035296;28;20045;-69
2024/01/10 00:59:55;;;;;;;27.58;11.02;;;-8.10;99.90;;;;;;5035262;28;20496;-69
2024/01/10 01:02:21;;;;;;;27.83;11.20;;;-8.10;99.90;;;;;;5034135;28;20049;-69
2024/01/10 01:04:47;;;;;;;29.73;12.15;;;-8.10;99.90;;;;;;5035422;28;20067;-69
2024/01/10 01:07:13;;;;;;;29.65;11.20;;;-8.10;99.90;;;;;;5035401;28;20380;-69
2024/01/10 01:09:40;;;;;;;29.02;11.88;;;-8.00;99.90;;;;;;5035825;28;20018;-69
2024/01/10 01:12:06;;;;;;;29.05;11.88;;;-8.00;99.90;;;;;;5035051;28;20036;-69
2024/01/10 01:14:33;;;;;;;33.03;12.68;;;-8.00;99.90;;;;;;5034463;28;20389;-69
2024/01/10 01:16:59;;;;;;;26.80;11.48;;;-8.00;99.90;;;;;;5034122;28;20025;-69
2024/01/10 01:19:28;;;;;;;27.58;11.88;;;-7.90;99.90;;;;;;5034799;28;20029;-70
2024/01/10 01:21:54;;;;;;;26.40;11.30;;;-7.90;99.90;;;;;;5035170;28;20030;-70
2024/01/10 01:24:23;;;;;;;22.88;9.63;;;-7.90;99.90;;;;;;5033716;28;20415;-70
2024/01/10 01:26:49;;;;;;;27.58;10.65;;;-7.90;99.90;;;;;;5035046;28;20160;-70
2024/01/10 01:29:14;;;;;;;25.23;10.90;;;-7.90;99.90;;;;;;5035964;28;20097;-71
2024/01/10 01:31:40;;;;;;;26.48;10.25;;;-7.90;99.90;;;;;;5034363;28;20026;-70
2024/01/10 01:34:06;;;;;;;26.20;10.65;;;-8.00;99.90;;;;;;5034690;28;20033;-70
2024/01/10 01:36:32;;;;;;;26.33;11.10;;;-8.00;99.90;;;;;;5033746;28;20569;-70
2024/01/10 01:38:58;;;;;;;28.52;11.00;;;-8.10;99.90;;;;;;5034813;28;20542;-70
2024/01/10 01:41:25;;;;;;;29.33;10.85;;;-8.10;99.90;;;;;;5034754;28;20036;-70
2024/01/10 01:43:51;;;;;;;28.83;10.88;;;-8.10;99.90;;;;;;5033656;28;20060;-70
2024/01/10 01:46:17;;;;;;;30.25;12.63;;;-8.00;99.90;;;;;;5033560;28;20033;-69
2024/01/10 01:48:44;;;;;;;28.92;12.15;;;-8.10;99.90;;;;;;5012994;28;20396;-70
2024/01/10 01:51:12;;;;;;;30.90;11.48;;;-8.10;99.90;;;;;;5014870;28;20022;-70
2024/01/10 01:53:40;;;;;;;29.75;11.40;;;-8.10;99.90;;;;;;5016017;28;20101;-70
2024/01/10 01:56:08;;;;;;;26.83;11.18;;;-8.00;99.90;;;;;;5035084;28;20025;-70
2024/01/10 01:58:36;;;;;;;26.60;11.85;;;-8.00;99.90;;;;;;5034672;28;20161;-70
2024/01/10 02:01:03;;;;;;;27.90;11.02;;;-8.10;99.90;;;;;;5034391;28;20075;-70
2024/01/10 02:03:31;;;;;;;33.92;11.70;;;-8.10;99.90;;;;;;5034042;28;20036;-70
2024/01/10 02:05:58;;;;;;;32.08;11.13;;;-8.10;99.90;;;;;;5032912;28;20064;-70
2024/01/10 02:08:23;;;;;;;24.65;9.88;;;-8.10;99.90;;;;;;5034257;28;20074;-70
2024/01/10 02:10:49;;;;;;;28.92;10.65;;;-8.10;99.90;;;;;;5034197;28;20529;-70
2024/01/10 02:13:16;;;;;;;27.23;10.10;;;-8.20;99.90;;;;;;5034197;28;20025;-70
2024/01/10 02:15:42;;;;;;;26.33;11.75;;;-8.20;99.90;;;;;;5034167;28;20036;-70
2024/01/10 02:18:12;;;;;;;26.58;10.77;;;-8.20;99.90;;;;;;5033841;28;20022;-70
2024/01/10 02:20:38;;;;;;;17.35;8.55;;;-8.20;99.90;;;;;;5033630;28;20031;-69
2024/01/10 02:23:04;;;;;;;22.15;10.63;;;-8.20;99.90;;;;;;5033969;28;20030;-70
2024/01/10 02:25:29;;;;;;;26.55;10.45;;;-8.20;99.90;;;;;;5034177;28;20363;-70
2024/01/10 02:27:55;;;;;;;24.67;10.35;;;-8.20;99.90;;;;;;5033879;28;20467;-70
2024/01/10 02:30:20;;;;;;;26.60;10.20;;;-8.20;99.90;;;;;;5032626;28;20036;-70
2024/01/10 02:32:46;;;;;;;25.83;11.05;;;-8.20;99.90;;;;;;5033688;28;20026;-69
2024/01/10 02:35:12;;;;;;;29.63;11.20;;;-8.20;99.90;;;;;;5034242;28;20053;-69
2024/01/10 02:37:38;;;;;;;28.48;9.65;;;-8.20;99.90;;;;;;5033417;28;20366;-69
2024/01/10 02:40:04;;;;;;;29.40;11.23;;;-8.20;99.90;;;;;;5033329;28;20421;-69
2024/01/10 02:42:31;;;;;;;21.15;9.93;;;-8.20;99.90;;;;;;5033707;28;20033;-69
2024/01/10 02:44:57;;;;;;;24.42;10.00;;;-8.20;99.90;;;;;;5033648;28;20033;-69
2024/01/10 02:47:22;;;;;;;25.67;11.15;;;-8.20;99.90;;;;;;5033514;28;20080;-70
2024/01/10 02:49:48;;;;;;;24.77;9.70;;;-8.20;99.90;;;;;;5033456;28;20049;-69
2024/01/10 02:52:14;;;;;;;25.42;10.20;;;-8.20;99.90;;;;;;5033795;28;20358;-69
2024/01/10 02:54:39;;;;;;;21.58;9.57;;;-8.30;99.90;;;;;;5032921;28;20123;-69
2024/01/10 02:57:05;;;;;;;23.02;9.23;;;-8.30;99.90;;;;;;5033521;28;20567;-70
2024/01/10 02:59:30;;;;;;;25.33;10.50;;;-8.30;99.90;;;;;;5033502;28;20444;-70
2024/01/10 03:01:56;;;;;;;22.33;9.70;;;-8.30;99.90;;;;;;5033482;28;20389;-69
2024/01/10 03:04:22;;;;;;;26.85;10.23;;;-8.20;99.90;;;;;;5032676;28;20499;-69
2024/01/10 03:06:49;;;;;;;33.08;11.00;;;-8.20;99.90;;;;;;5016244;28;20187;-69
2024/01/10 03:09:14;;;;;;;26.73;10.35;;;-8.20;99.90;;;;;;5033370;28;20040;-69
2024/01/10 03:11:40;;;;;;;25.95;10.05;;;-8.20;99.90;;;;;;5031819;28;20034;-69
2024/01/10 03:14:10;;;;;;;21.75;10.20;;;-8.30;99.90;;;;;;5033215;28;20045;-69
2024/01/10 03:16:36;;;;;;;21.65;9.27;;;-8.30;99.90;;;;;;5032085;28;20025;-69
2024/01/10 03:19:02;;;;;;;29.92;11.77;;;-8.20;99.90;;;;;;5033010;28;20045;-69
2024/01/10 03:21:28;;;;;;;24.88;10.30;;;-8.30;99.90;;;;;;5033119;28;20022;-69
2024/01/10 03:23:58;;;;;;;25.27;10.05;;;-8.40;99.90;;;;;;5033371;28;20478;-69
2024/01/10 03:26:25;;;;;;;27.60;10.47;;;-8.40;99.90;;;;;;5033101;28;20219;-70
2024/01/10 03:28:51;;;;;;;29.52;10.82;;;-8.40;99.90;;;;;;5033400;28;20044;-70
2024/01/10 03:31:17;;;;;;;23.80;9.77;;;-8.50;99.90;;;;;;5033172;28;20036;-69
2024/01/10 03:33:42;;;;;;;21.33;9.35;;;-8.50;99.90;;;;;;5032680;28;20021;-70
2024/01/10 03:36:16;;;;;;;23.20;9.60;;;-8.50;99.90;;;;;;5033160;28;20034;-69
2024/01/10 03:38:42;;;;;;;26.83;10.35;;;-8.50;99.90;;;;;;5032962;28;20018;-69
2024/01/10 03:41:13;;;;;;;26.20;10.35;;;-8.50;99.90;;;;;;5033004;28;20099;-69
2024/01/10 03:43:39;;;;;;;;;;;-8.50;99.90;;;;;;5033033;28;20044;-70
2024/01/10 03:46:05;;;;;;;23.70;9.20;;;-8.50;99.90;;;;;;5033066;28;20372;-69
2024/01/10 03:48:31;;;;;;;22.50;9.82;;;-8.50;99.90;;;;;;5032434;28;20124;-69
2024/01/10 03:50:57;;;;;;;22.27;9.70;;;-8.50;99.90;;;;;;5032966;28;20057;-69
2024/01/10 03:53:22;;;;;;;26.67;10.02;;;-8.50;99.90;;;;;;5032990;28;20061;-69
2024/01/10 03:55:48;;;;;;;25.17;10.40;;;-8.50;99.90;;;;;;5033036;28;20029;-70
2024/01/10 03:58:14;;;;;;;23.73;9.57;;;-8.50;99.90;;;;;;5032819;28;20079;-69
2024/01/10 04:00:39;;;;;;;24.38;10.32;;;-8.50;99.90;;;;;;5031625;28;20033;-69
2024/01/10 04:03:05;;;;;;;27.70;10.45;;;-8.50;99.90;;;;;;5032726;28;20040;-70
2024/01/10 04:05:31;;;;;;;24.75;10.27;;;-8.50;99.90;;;;;;5032764;28;20388;-69
2024/01/10 04:07:56;;;;;;;23.17;9.02;;;-8.50;99.90;;;;;;5034804;28;20033;-69
2024/01/10 04:10:23;;;;;;;25.88;9.93;;;-8.50;99.90;;;;;;5035583;28;20032;-69
2024/01/10 04:12:48;;;;;;;23.55;9.05;;;-8.50;99.90;;;;;;5036435;28;20064;-69
2024/01/10 04:15:14;;;;;;;25.23;10.10;;;-8.50;99.90;;;;;;5036096;28;20393;-69
2024/01/10 04:17:40;;;;;;;27.88;9.82;;;-8.50;99.90;;;;;;5035947;28;20138;-69
2024/01/10 04:20:07;;;;;;;25.13;10.07;;;-8.50;99.90;;;;;;5036110;28;20112;-70
2024/01/10 04:22:32;;;;;;;25.13;10.32;;;-8.50;99.90;;;;;;5036325;28;20485;-69
2024/01/10 04:25:00;;;;;;;27.98;10.73;;;-8.50;99.90;;;;;;5036209;28;20038;-70
2024/01/10 04:27:26;;;;;;;24.27;9.65;;;-8.50;99.90;;;;;;5036082;28;20049;-69
2024/01/10 04:29:51;;;;;;;26.77;9.23;;;-8.60;99.90;;;;;;5036456;28;20101;-70
2024/01/10 04:32:17;;;;;;;18.60;7.00;;;-8.60;99.90;;;;;;5035681;28;20127;-69
2024/01/10 04:34:43;;;;;;;22.90;9.13;;;-8.60;99.90;;;;;;5035987;28;20501;-70
2024/01/10 04:37:08;;;;;;;24.77;9.88;;;-8.60;99.90;;;;;;5036146;28;20033;-69
2024/01/10 04:39:34;;;;;;;22.85;8.93;;;-8.60;99.90;;;;;;5035674;28;20049;-70
2024/01/10 04:42:01;;;;;;;23.90;9.13;;;-8.50;99.90;;;;;;5035430;28;20026;-69
2024/01/10 04:44:26;;;;;;;22.17;8.90;;;-8.50;99.90;;;;;;5035832;28;20042;-70
2024/01/10 04:46:52;;;;;;;25.75;9.13;;;-8.50;99.90;;;;;;5035473;28;20030;-70
2024/01/10 04:49:18;;;;;;;28.42;9.88;;;-8.50;99.90;;;;;;5035924;28;20099;-69
2024/01/10 04:51:44;;;;;;;26.05;9.40;;;-8.50;99.90;;;;;;5035760;28;20022;-69
2024/01/10 04:54:11;;;;;;;23.05;9.02;;;-8.50;99.90;;;;;;5035723;28;20126;-69
2024/01/10 04:56:37;;;;;;;23.55;8.93;;;-8.50;99.90;;;;;;5035960;28;20079;-69
2024/01/10 04:59:03;;;;;;;24.75;8.65;;;-8.50;99.90;;;;;;5035499;28;20037;-69
2024/01/10 05:01:29;;;;;;;29.05;9.80;;;-8.50;99.90;;;;;;5034321;28;20070;-69
2024/01/10 05:03:55;;;;;;;24.60;9.05;;;-8.60;99.90;;;;;;5035209;28;20064;-69
2024/01/10 05:06:20;;;;;;;21.25;9.32;;;-8.50;99.90;;;;;;5035431;28;20044;-69
2024/01/10 05:08:46;;;;;;;19.98;8.43;;;-8.60;99.90;;;;;;5035366;28;20032;-69
2024/01/10 05:11:12;;;;;;;25.27;9.43;;;-8.60;99.90;;;;;;5035320;28;20032;-69
2024/01/10 05:13:39;;;;;;;27.20;10.70;;;-8.50;99.90;;;;;;5035524;28;20025;-69
2024/01/10 05:16:05;;;;;;;25.25;9.80;;;-8.50;99.90;;;;;;5035288;28;20108;-69
2024/01/10 05:18:31;;;;;;;20.23;9.20;;;-8.50;99.90;;;;;;5034487;28;20047;-69
2024/01/10 05:20:57;;;;;;;20.42;8.60;;;-8.50;99.90;;;;;;5035588;28;20029;-69
2024/01/10 05:23:23;;;;;;;18.80;8.57;;;-8.40;99.90;;;;;;5035314;28;20459;-69
2024/01/10 05:25:49;;;;;;;20.55;8.77;;;-8.50;99.90;;;;;;5035259;28;20108;-69
2024/01/10 05:28:15;;;;;;;18.05;8.00;;;-8.40;99.90;;;;;;5035249;28;20026;-69
2024/01/10 05:30:42;;;;;;;21.67;8.48;;;-8.50;99.90;;;;;;5035219;28;20100;-69
2024/01/10 05:33:08;;;;;;;24.38;9.27;;;-8.50;99.90;;;;;;5035073;28;20036;-70
2024/01/10 05:35:35;;;;;;;19.05;8.27;;;-8.50;99.90;;;;;;5034746;28;20493;-69
2024/01/10 05:38:02;;;;;;;20.88;9.90;;;-8.50;99.90;;;;;;5034837;28;20033;-69
2024/01/10 05:40:30;;;;;;;28.65;10.00;;;-8.50;99.90;;;;;;5033111;28;20025;-70
2024/01/10 05:42:56;;;;;;;20.20;9.45;;;-8.50;99.90;;;;;;5034395;28;20032;-69
2024/01/10 05:45:22;;;;;;;24.63;8.38;;;-8.50;99.90;;;;;;5034640;28;20075;-69
2024/01/10 05:47:48;;;;;;;21.80;8.32;;;-8.50;99.90;;;;;;5033423;28;20034;-69
2024/01/10 05:50:14;;;;;;;20.15;8.40;;;-8.50;99.90;;;;;;5034533;28;20026;-69
2024/01/10 05:52:40;;;;;;;21.17;9.35;;;-8.60;99.90;;;;;;5034336;28;20140;-69
2024/01/10 05:55:08;;;;;;;20.85;9.75;;;-8.70;99.90;;;;;;5035046;28;20466;-70
2024/01/10 05:57:35;;;;;;;26.83;10.52;;;-8.70;99.90;;;;;;5034383;28;20543;-70
2024/01/10 06:00:00;;;;;;;20.52;9.00;;;-8.80;99.90;;;;;;5034427;28;20042;-70
2024/01/10 06:02:26;;;;;;;25.88;12.30;;;-8.80;99.90;;;;;;5034417;28;20037;-70
2024/01/10 06:04:52;;;;;;;29.25;13.52;;;-8.80;99.90;;;;;;5032789;28;20504;-70
2024/01/10 06:07:18;;;;;;;56.35;27.80;;;-8.80;99.90;;;;;;5032521;28;20030;-70
2024/01/10 06:09:44;;;;;;;39.10;21.63;;;-8.80;99.90;;;;;;5034232;28;20027;-70
2024/01/10 06:12:09;;;;;;;31.33;15.52;;;-8.70;99.90;;;;;;5034501;28;20385;-70
2024/01/10 06:14:35;;;;;;;39.60;14.73;;;-8.70;99.90;;;;;;5034156;28;20030;-70
2024/01/10 06:17:03;;;;;;;60.17;19.30;;;-8.70;99.90;;;;;;5016454;28;20382;-70
2024/01/10 06:19:30;;;;;;;49.72;17.92;;;-8.90;99.90;;;;;;5033785;28;20027;-70
2024/01/10 06:21:57;;;;;;;34.05;13.85;;;-9.00;99.90;;;;;;5033799;28;20026;-70
2024/01/10 06:24:22;;;;;;;41.60;15.90;;;-9.10;99.90;;;;;;5033506;28;20469;-71
2024/01/10 06:26:49;;;;;;;29.55;12.93;;;-9.20;99.90;;;;;;5033786;28;20018;-70
2024/01/10 06:29:15;;;;;;;33.88;12.32;;;-9.20;99.90;;;;;;5033658;28;20025;-70
2024/01/10 06:31:41;;;;;;;28.98;11.05;;;-9.10;99.90;;;;;;5033852;28;20116;-70
2024/01/10 06:34:07;;;;;;;31.52;11.20;;;-9.10;99.90;;;;;;5033595;28;20057;-70
2024/01/10 06:36:33;;;;;;;29.88;12.77;;;-9.10;99.90;;;;;;5033823;28;20036;-70
2024/01/10 06:39:00;;;;;;;28.42;11.68;;;-9.10;99.90;;;;;;5033446;28;20041;-70
2024/01/10 06:41:25;;;;;;;22.45;9.90;;;-9.10;99.90;;;;;;5033691;28;20067;-70
2024/01/10 06:43:52;;;;;;;29.67;11.93;;;-9.10;99.90;;;;;;5033578;28;20056;-70
2024/01/10 06:46:18;;;;;;;38.97;15.27;;;-9.10;99.90;;;;;;5034240;28;20056;-70
2024/01/10 06:48:44;;;;;;;43.17;14.98;;;-9.20;99.90;;;;;;5033390;28;20041;-70
2024/01/10 06:51:13;;;;;;;35.78;16.13;;;-9.20;99.90;;;;;;5033527;28;20120;-70
2024/01/10 06:53:40;;;;;;;35.30;14.30;;;-9.20;99.90;;;;;;5033556;28;20060;-70
2024/01/10 06:56:06;;;;;;;32.47;13.23;;;-9.20;99.90;;;;;;5032259;28;20147;-70
2024/01/10 06:58:32;;;;;;;34.45;13.95;;;-9.30;99.90;;;;;;5033334;28;20072;-70
2024/01/10 07:01:00;;;;;;;33.15;13.43;;;-9.30;99.90;;;;;;5033227;28;20025;-70
2024/01/10 07:03:26;;;;;;;28.27;12.73;;;-9.50;99.90;;;;;;5033201;28;20098;-70
2024/01/10 07:05:52;;;;;;;43.50;13.43;;;-9.60;99.90;;;;;;5033330;28;20041;-70
2024/01/10 07:08:18;;;;;;;27.10;12.15;;;-9.60;99.90;;;;;;5033897;28;20029;-70
2024/01/10 07:10:43;;;;;;;29.60;11.88;;;-9.50;99.90;;;;;;5033303;28;20133;-70
2024/01/10 07:13:10;;;;;;;28.90;12.10;;;-9.50;99.90;;;;;;5033400;28;20025;-70
2024/01/10 07:15:37;;;;;;;27.75;11.82;;;-9.40;99.90;;;;;;5033278;28;20501;-70
2024/01/10 07:18:03;;;;;;;32.75;13.55;;;-9.30;99.90;;;;;;5031954;28;20040;-70
2024/01/10 07:20:28;;;;;;;38.88;13.77;;;-9.30;99.90;;;;;;5032727;28;20033;-70
2024/01/10 07:22:54;;;;;;;34.03;14.00;;;-9.30;99.90;;;;;;5031926;28;20026;-70
2024/01/10 07:25:22;;;;;;;30.15;13.75;;;-9.20;99.90;;;;;;5033364;28;20033;-70
2024/01/10 07:27:47;;;;;;;29.55;13.18;;;-9.20;99.90;;;;;;5032820;28;20024;-70
2024/01/10 07:30:13;;;;;;;31.90;13.38;;;-9.10;99.90;;;;;;5033152;28;20030;-69
2024/01/10 07:32:46;;;;;;;31.33;12.82;;;-9.10;99.90;;;;;;5033418;28;20022;-69
2024/01/10 07:35:15;;;;;;;26.23;11.45;;;-9.00;99.90;;;;;;5032846;28;20037;-69
2024/01/10 07:37:42;;;;;;;26.63;11.98;;;-9.00;99.90;;;;;;5032459;28;20029;-70
2024/01/10 07:40:10;;;;;;;26.88;11.38;;;-9.00;99.90;;;;;;5032977;28;20064;-69
2024/01/10 07:42:36;;;;;;;25.48;8.98;;;-8.90;99.90;;;;;;5036100;28;20033;-69
2024/01/10 07:45:04;;;;;;;23.95;9.68;;;-9.00;99.90;;;;;;5037218;28;20037;-69
2024/01/10 07:47:31;;;;;;;18.35;8.50;;;-9.00;99.90;;;;;;5036979;28;20037;-70
2024/01/10 07:49:57;;;;;;;28.60;10.70;;;-9.00;99.90;;;;;;5036724;28;20041;-69
2024/01/10 07:52:23;;;;;;;31.58;11.13;;;-8.90;99.90;;;;;;5037407;28;20025;-69
2024/01/10 07:54:48;;;;;;;21.50;9.98;;;-8.90;99.90;;;;;;5036789;28;20108;-69
2024/01/10 07:57:14;;;;;;;29.73;11.85;;;-9.00;99.90;;;;;;5036812;28;20044;-71
2024/01/10 07:59:40;;;;;;;27.17;9.75;;;-9.10;99.90;;;;;;5036394;28;20041;-69
2024/01/10 08:02:06;;;;;;;27.23;12.23;;;-9.10;99.90;;;;;;5036925;28;20032;-69
2024/01/10 08:04:32;;;;;;;29.27;12.30;;;-9.10;99.90;;;;;;5036304;28;20473;-69
2024/01/10 08:06:58;;;;;;;26.50;10.50;;;-9.10;99.90;;;;;;5036594;28;20083;-69
2024/01/10 08:09:24;;;;;;;34.20;11.05;;;-9.00;99.90;;;;;;5036430;28;20022;-69
2024/01/10 08:11:50;;;;;;;26.10;10.93;;;-9.10;99.90;;;;;;5036243;28;20154;-70
2024/01/10 08:14:16;;;;;;;26.73;11.18;;;-9.10;99.90;;;;;;5036214;28;20037;-69
2024/01/10 08:16:42;;;;;;;26.90;12.13;;;-9.10;99.90;;;;;;5035147;28;20021;-69
2024/01/10 08:19:08;;;;;;;33.97;13.00;;;-9.00;99.90;;;;;;5036134;28;20030;-70
2024/01/10 08:21:34;;;;;;;30.52;13.30;;;-9.00;99.90;;;;;;5036384;28;20052;-69
2024/01/10 08:24:02;;;;;;;28.08;12.23;;;-8.90;99.90;;;;;;5036209;28;20436;-69
2024/01/10 08:26:28;;;;;;;32.50;12.07;;;-8.90;99.90;;;;;;5035024;28;20049;-70
2024/01/10 08:28:53;;;;;;;29.40;10.35;;;-8.90;99.90;;;;;;5035984;28;20057;-70
2024/01/10 08:31:19;;;;;;;29.70;10.95;;;-8.90;99.90;;;;;;5035210;28;20064;-69
2024/01/10 08:33:46;;;;;;;25.48;10.20;;;-8.90;99.90;;;;;;5035928;28;20513;-70
2024/01/10 08:36:12;;;;;;;28.17;11.05;;;-8.90;99.90;;;;;;5036101;28;20055;-69
2024/01/10 08:38:38;;;;;;;23.88;9.30;;;-8.80;99.90;;;;;;5036250;28;20159;-69
2024/01/10 08:41:04;;;;;;;27.27;9.68;;;-8.80;99.90;;;;;;5035927;28;20076;-70
2024/01/10 08:43:30;;;;;;;27.73;10.65;;;-8.80;99.90;;;;;;5035987;28;20029;-70
2024/01/10 08:45:57;;;;;;;21.42;9.80;;;-8.70;99.90;;;;;;5035368;28;20022;-70
2024/01/10 08:48:23;;;;;;;21.00;10.10;;;-8.70;99.90;;;;;;5034641;28;20030;-69
2024/01/10 08:50:50;;;;;;;31.23;12.75;;;-8.60;99.90;;;;;;5035522;28;20025;-69
2024/01/10 08:53:16;;;;;;;31.77;12.07;;;-8.60;99.90;;;;;;5035159;28;20029;-69
2024/01/10 08:55:42;;;;;;;25.92;11.05;;;-8.50;99.90;;;;;;5036254;28;20087;-70
2024/01/10 08:58:08;;;;;;;34.58;12.13;;;-8.50;99.90;;;;;;5035747;28;20555;-70
2024/01/10 09:00:34;;;;;;;29.27;11.93;;;-8.40;99.90;;;;;;5035352;28;20033;-70
2024/01/10 09:03:00;;;;;;;35.85;13.18;;;-8.40;99.90;;;;;;5035593;28;20079;-69
2024/01/10 09:05:26;;;;;;;31.58;12.95;;;-8.40;99.90;;;;;;5035219;28;20034;-69
2024/01/10 09:07:53;;;;;;;29.73;12.40;;;-8.40;99.90;;;;;;5035431;28;20028;-70
2024/01/10 09:10:21;;;;;;;29.25;12.43;;;-8.40;99.90;;;;;;5034195;28;20064;-70
2024/01/10 09:12:47;;;;;;;27.45;12.05;;;-8.40;99.90;;;;;;5035650;28;20025;-70
2024/01/10 09:15:14;;;;;;;31.35;10.68;;;-8.30;99.90;;;;;;5035142;28;20053;-70
2024/01/10 09:17:43;;;;;;;33.13;12.27;;;-8.20;99.90;;;;;;5035285;28;20025;-70
2024/01/10 09:20:10;;;;;;;26.80;11.10;;;-8.20;99.90;;;;;;5034541;28;20022;-70
2024/01/10 09:22:35;;;;;;;28.88;11.02;;;-8.20;99.90;;;;;;5035474;28;20071;-70
2024/01/10 09:25:04;;;;;;;33.35;10.68;;;-8.20;99.90;;;;;;5035009;28;20033;-70
2024/01/10 09:27:31;;;;;;;29.45;12.75;;;-8.20;99.90;;;;;;5017355;28;20776;-70
2024/01/10 09:29:56;;;;;;;26.67;12.02;;;-8.10;99.90;;;;;;5034990;28;20032;-70
2024/01/10 09:32:22;;;;;;;32.83;12.45;;;-8.00;99.90;;;;;;5035271;28;20034;-70
2024/01/10 09:34:48;;;;;;;33.53;12.27;;;-7.90;99.90;;;;;;5034812;28;20021;-70
2024/01/10 09:37:14;;;;;;;38.95;14.32;;;-7.80;99.90;;;;;;5035130;28;20033;-70
2024/01/10 09:39:39;;;;;;;37.42;14.02;;;-7.70;99.90;;;;;;5035038;28;20034;-70
2024/01/10 09:42:06;;;;;;;37.85;13.32;;;-7.70;99.90;;;;;;5034404;28;20041;-70
2024/01/10 09:44:33;;;;;;;33.67;14.07;;;-7.60;99.90;;;;;;5034647;28;20029;-70
2024/01/10 09:47:00;;;;;;;31.85;13.50;;;-7.60;99.90;;;;;;5033505;28;20026;-70
2024/01/10 09:49:26;;;;;;;36.90;13.25;;;-7.50;99.90;;;;;;5034277;28;20528;-70
2024/01/10 09:51:58;;;;;;;33.60;14.98;;;-7.40;99.90;;;;;;5034722;28;20033;-70
2024/01/10 09:54:26;;;;;;;30.65;11.98;;;-7.40;99.90;;;;;;5034600;28;20481;-70
2024/01/10 09:56:53;;;;;;;33.30;13.48;;;-7.30;99.90;;;;;;5034418;28;20037;-70
2024/01/10 09:59:19;;;;;;;36.05;14.95;;;-7.10;99.90;;;;;;5033175;28;20025;-70
2024/01/10 10:01:44;;;;;;;40.58;14.93;;;-7.00;99.90;;;;;;5033193;28;20469;-70
2024/01/10 10:04:12;;;;;;;44.40;15.85;;;-7.00;99.90;;;;;;5033390;28;20489;-70
2024/01/10 10:06:38;;;;;;;46.45;16.02;;;-6.80;99.90;;;;;;5033923;28;20022;-70
2024/01/10 10:09:04;;;;;;;50.83;18.83;;;-6.80;99.90;;;;;;5034252;28;20080;-70
2024/01/10 10:11:30;;;;;;;44.97;18.88;;;-6.70;99.90;;;;;;5034224;28;20025;-70
2024/01/10 10:13:56;;;;;;;44.45;18.75;;;-6.60;99.90;;;;;;5034390;28;20056;-70
2024/01/10 10:16:28;;;;;;;48.85;18.80;;;-6.60;99.90;;;;;;5033859;28;20053;-71
2024/01/10 10:18:57;;;;;;;45.10;18.30;;;-6.60;99.90;;;;;;5032241;28;20478;-70
2024/01/10 10:21:26;;;;;;;40.55;16.73;;;-6.50;99.90;;;;;;5033790;28;20032;-70
2024/01/10 10:24:03;;;;;;;35.17;15.88;;;-6.40;99.90;;;;;;5033856;28;20053;-70
2024/01/10 10:26:32;;;;;;;40.95;16.90;;;-6.40;99.90;;;;;;5034511;28;20412;-71
2024/01/10 10:28:59;;;;;;;47.13;20.15;;;-6.30;99.90;;;;;;5033808;28;20033;-70
2024/01/10 10:31:25;;;;;;;46.38;18.50;;;-6.20;99.90;;;;;;5033921;28;20064;-70
2024/01/10 10:33:52;;;;;;;41.40;17.77;;;-6.10;99.90;;;;;;5033735;28;20040;-70
2024/01/10 10:36:18;;;;;;;50.45;20.40;;;-6.10;99.90;;;;;;5033717;28;20075;-70
2024/01/10 10:38:47;;;;;;;42.70;19.15;;;-6.10;99.90;;;;;;5033615;28;20021;-70
2024/01/10 10:41:13;;;;;;;53.35;21.55;;;-6.00;99.90;;;;;;5033946;28;20354;-70
2024/01/10 10:43:40;;;;;;;48.60;20.65;;;-6.00;99.90;;;;;;5033777;28;20052;-70
2024/01/10 10:46:12;;;;;;;46.15;19.55;;;-6.00;99.90;;;;;;5033645;28;20053;-70
2024/01/10 10:48:38;;;;;;;42.50;18.08;;;-5.90;99.90;;;;;;5033294;28;20067;-70
2024/01/10 10:51:06;;;;;;;49.90;20.20;;;-5.90;99.90;;;;;;5034029;28;20104;-70
2024/01/10 10:53:37;;;;;;;46.65;20.00;;;-5.80;99.90;;;;;;5033614;28;20018;-70
2024/01/10 10:56:05;;;;;;;42.90;17.10;;;-5.70;99.90;;;;;;5033603;28;20025;-70
2024/01/10 10:58:35;;;;;;;37.88;17.75;;;-5.70;99.90;;;;;;5033574;28;20374;-70
2024/01/10 11:01:08;;;;;;;41.50;17.73;;;-5.60;99.90;;;;;;5033567;28;20128;-70
2024/01/10 11:03:39;;;;;;;45.03;18.02;;;-5.60;99.90;;;;;;5033766;28;20260;-70
2024/01/10 11:06:06;;;;;;;49.78;20.20;;;-5.50;99.90;;;;;;5032912;28;20124;-70
2024/01/10 11:08:37;;;;;;;45.75;20.20;;;-5.50;99.90;;;;;;5032913;28;20045;-70
2024/01/10 11:11:14;;;;;;;46.60;20.05;;;-5.40;99.90;;;;;;5033317;28;20032;-70
2024/01/10 11:14:13;;;;;;;46.80;18.85;;;-5.40;99.90;;;;;;5033615;28;20075;-70
2024/01/10 11:17:01;;;;;;;54.40;21.80;;;-5.30;99.90;;;;;;5033382;28;20354;-70
2024/01/10 11:19:56;;;;;;;54.53;22.88;;;-5.20;99.90;;;;;;4995940;28;20048;-71
2024/01/10 11:22:34;;;;;;;46.17;19.77;;;-5.20;99.90;;;;;;5033029;28;20025;-70
2024/01/10 11:25:00;;;;;;;58.22;20.20;;;-5.10;99.90;;;;;;5033081;28;20067;-70
2024/01/10 11:27:26;;;;;;;44.63;18.70;;;-5.00;99.90;;;;;;5031630;28;20552;-71
2024/01/10 11:29:52;;;;;;;37.78;16.27;;;-5.00;99.90;;;;;;5033102;28;20048;-71
2024/01/10 11:32:23;;;;;;;38.30;15.90;;;-4.90;99.90;;;;;;5033406;28;20053;-70
2024/01/10 11:34:58;;;;;;;42.60;17.25;;;-4.80;99.90;;;;;;5033180;28;20040;-71
2024/01/10 11:37:28;;;;;;;40.38;18.30;;;-4.80;99.90;;;;;;5033072;28;20508;-71
2024/01/10 11:39:53;;;;;;;41.60;17.00;;;-4.70;99.90;;;;;;5033292;28;20075;-71
2024/01/10 11:42:23;;;;;;;47.05;18.30;;;-4.70;99.90;;;;;;5032768;28;20675;-70
2024/01/10 11:44:51;;;;;;;37.58;17.75;;;-4.70;99.90;;;;;;5031718;28;20499;-71
2024/01/10 11:47:20;;;;;;;39.83;16.90;;;-4.70;99.90;;;;;;5032821;28;20049;-71
2024/01/10 11:49:58;;;;;;;39.47;17.25;;;-4.70;99.90;;;;;;5032617;28;20100;-71
2024/01/10 11:52:33;;;;;;;43.70;17.63;;;-4.60;99.90;;;;;;5032852;28;20112;-71
2024/01/10 11:54:58;;;;;;;40.45;16.92;;;-4.50;99.90;;;;;;5033012;28;20028;-71
2024/01/10 11:57:29;;;;;;;38.90;16.00;;;-4.50;99.90;;;;;;5031636;28;20026;-71
2024/01/10 11:59:56;;;;;;;39.47;17.20;;;-4.40;99.90;;;;;;5032916;28;20057;-71
2024/01/10 12:02:25;;;;;;;57.30;17.10;;;-4.40;99.90;;;;;;5032894;28;20450;-71
2024/01/10 12:04:50;;;;;;;56.50;19.38;;;-4.30;99.90;;;;;;5032399;28;20025;-71
2024/01/10 12:07:17;;;;;;;49.47;19.05;;;-4.30;99.90;;;;;;5033106;28;20033;-70
2024/01/10 12:09:43;;;;;;;55.83;17.83;;;-4.20;99.90;;;;;;5032823;28;20424;-71
2024/01/10 12:12:12;;;;;;;49.28;17.50;;;-4.20;99.90;;;;;;5032876;28;20024;-71
2024/01/10 12:14:38;;;;;;;43.15;19.30;;;-4.10;99.90;;;;;;5032840;28;20029;-71
2024/01/10 12:17:07;;;;;;;49.25;18.50;;;-4.10;99.90;;;;;;5032830;28;20068;-70
2024/01/10 12:19:34;;;;;;;53.53;18.60;;;-4.00;99.90;;;;;;5032263;28;20021;-71
2024/01/10 12:22:00;;;;;;;43.08;17.80;;;-3.90;99.90;;;;;;5032507;28;20064;-71
2024/01/10 12:24:29;;;;;;;41.92;17.67;;;-3.90;99.90;;;;;;5032629;28;20057;-71
2024/01/10 12:26:56;;;;;;;44.03;17.88;;;-3.80;99.90;;;;;;5032636;28;20099;-71